createdAt,value
2023-04-01T00:00:07.905Z,95603.47
2023-04-01T00:01:11.110Z,95598.88
2023-04-01T00:02:12.921Z,95601.47
2023-04-01T00:03:14.870Z,95598.47
2023-04-01T00:04:17.165Z,95598.25
2023-04-01T00:05:18.955Z,95597.59
2023-04-01T00:06:20.783Z,95589.34
2023-04-01T00:07:22.569Z,95594.13
2023-04-01T00:08:24.908Z,95602.50
2023-04-01T00:09:26.722Z,95616.72
2023-04-01T00:10:31.772Z,95624.72
2023-04-01T00:11:33.959Z,95627.50
2023-04-01T00:12:36.524Z,95631.72
2023-04-01T00:13:38.371Z,95649.06
2023-04-01T00:14:40.976Z,95644.31
2023-04-01T00:15:42.949Z,95634.81
2023-04-01T00:16:45.004Z,95620.78
2023-04-01T00:17:46.907Z,95603.19
2023-04-01T00:18:49.512Z,95605.97
2023-04-01T00:19:51.362Z,95605.09
2023-04-01T00:20:53.905Z,95619.03
2023-04-01T00:21:55.782Z,95642.53
2023-04-01T00:22:57.798Z,95637.56
2023-04-01T00:24:00.442Z,95624.06
2023-04-01T00:25:02.325Z,95630.91
2023-04-01T00:26:04.353Z,95630.91
2023-04-01T00:27:07.001Z,95627.31
2023-04-01T00:28:08.910Z,95626.66
2023-04-01T00:29:10.795Z,95627.81
2023-04-01T00:30:12.829Z,95633.75
2023-04-01T00:31:15.754Z,95628.91
2023-04-01T00:32:17.976Z,95631.72
2023-04-01T00:33:19.729Z,95629.78
2023-04-01T00:34:21.703Z,95631.44
2023-04-01T00:35:23.625Z,95625.50
2023-04-01T00:36:25.372Z,95626.34
2023-04-01T00:37:27.663Z,95629.59
2023-04-01T00:38:29.470Z,95630.97
2023-04-01T00:39:32.467Z,95638.19
2023-04-01T00:40:38.405Z,95638.97
2023-04-01T00:41:40.191Z,95639.41
2023-04-01T00:42:42.019Z,95632.03
2023-04-01T00:43:46.183Z,95624.63
2023-04-01T00:44:55.136Z,95634.22
2023-04-01T00:45:57.219Z,95637.47
2023-04-01T00:46:59.005Z,95637.88
2023-04-01T00:48:02.839Z,95636.06
2023-04-01T00:49:04.590Z,95637.09
2023-04-01T00:50:06.703Z,95635.72
2023-04-01T00:51:15.380Z,95634.50
2023-04-01T00:52:20.211Z,95639.69
2023-04-01T00:53:22.794Z,95645.88
2023-04-01T00:54:26.766Z,95649.28
2023-04-01T00:55:31.505Z,95654.81
2023-04-01T00:56:36.822Z,95653.63
2023-04-01T00:57:38.925Z,95642.44
2023-04-01T00:58:42.707Z,95649.78
2023-04-01T00:59:46.285Z,95640.56
2023-04-01T01:00:49.775Z,95634.34
2023-04-01T01:01:51.661Z,95641.00
2023-04-01T01:02:53.968Z,95640.06
2023-04-01T01:03:55.797Z,95635.66
2023-04-01T01:04:57.556Z,95637.69
2023-04-01T01:06:05.321Z,95628.72
2023-04-01T01:07:19.054Z,95623.53
2023-04-01T01:08:41.116Z,95628.28
2023-04-01T01:09:48.656Z,95624.25
2023-04-01T01:10:51.351Z,95626.44
2023-04-01T01:12:02.384Z,95620.78
2023-04-01T01:13:10.139Z,95627.38
2023-04-01T01:14:15.419Z,95624.78
2023-04-01T01:15:26.491Z,95610.78
2023-04-01T01:16:30.551Z,95617.34
2023-04-01T01:17:44.582Z,95611.94
2023-04-01T01:19:06.405Z,95614.97
2023-04-01T01:20:27.056Z,95617.78
2023-04-01T01:21:47.435Z,95610.06
2023-04-01T01:23:07.610Z,95612.38
2023-04-01T01:24:18.796Z,95600.00
2023-04-01T01:25:21.167Z,95610.19
2023-04-01T01:26:40.976Z,95610.41
2023-04-01T01:27:46.242Z,95613.00
2023-04-01T01:29:06.635Z,95611.75
2023-04-01T01:30:17.340Z,95607.53
2023-04-01T01:31:24.433Z,95608.09
2023-04-01T01:32:46.634Z,95613.88
2023-04-01T01:34:08.229Z,95611.66
2023-04-01T01:35:15.696Z,95603.66
2023-04-01T01:36:19.430Z,95620.22
2023-04-01T01:37:23.498Z,95616.91
2023-04-01T01:38:28.071Z,95615.31
2023-04-01T01:39:32.892Z,95608.53
2023-04-01T01:40:35.793Z,95596.16
2023-04-01T01:41:38.957Z,95589.34
2023-04-01T01:42:44.602Z,95590.78
2023-04-01T01:43:49.764Z,95602.81
2023-04-01T01:44:52.384Z,95607.00
2023-04-01T01:45:56.829Z,95595.97
2023-04-01T01:46:58.962Z,95590.38
2023-04-01T01:48:02.289Z,95600.75
2023-04-01T01:49:04.920Z,95600.97
2023-04-01T01:50:07.480Z,95608.97
2023-04-01T01:51:09.941Z,95597.59
2023-04-01T01:52:12.598Z,95595.94
2023-04-01T01:53:15.184Z,95596.84
2023-04-01T01:54:18.032Z,95588.66
2023-04-01T01:55:25.266Z,95600.03
2023-04-01T01:56:28.376Z,95596.44
2023-04-01T01:57:32.769Z,95597.59
2023-04-01T01:58:41.589Z,95595.94
2023-04-01T01:59:44.313Z,95597.88
2023-04-01T02:00:49.842Z,95603.44
2023-04-01T02:01:53.056Z,95594.41
2023-04-01T02:02:55.169Z,95592.19
2023-04-01T02:03:57.991Z,95596.59
2023-04-01T02:05:00.623Z,95606.75
2023-04-01T02:06:03.445Z,95610.56
2023-04-01T02:07:07.660Z,95609.00
2023-04-01T02:08:13.198Z,95587.06
2023-04-01T02:09:15.411Z,95575.88
2023-04-01T02:10:17.641Z,95590.50
2023-04-01T02:11:21.252Z,95588.34
2023-04-01T02:12:24.110Z,95596.00
2023-04-01T02:13:32.699Z,95584.59
2023-04-01T02:14:43.051Z,95593.41
2023-04-01T02:15:48.392Z,95600.59
2023-04-01T02:16:53.786Z,95599.03
2023-04-01T02:17:58.232Z,95600.84
2023-04-01T02:19:01.419Z,95603.66
2023-04-01T02:20:06.632Z,95607.41
2023-04-01T02:21:09.272Z,95615.31
2023-04-01T02:22:13.998Z,95623.28
2023-04-01T02:23:15.870Z,95627.03
2023-04-01T02:24:17.698Z,95620.59
2023-04-01T02:25:23.036Z,95616.63
2023-04-01T02:26:26.889Z,95619.22
2023-04-01T02:27:29.449Z,95616.44
2023-04-01T02:28:32.699Z,95618.00
2023-04-01T02:29:34.567Z,95608.19
2023-04-01T02:30:38.158Z,95615.75
2023-04-01T02:31:40.355Z,95610.56
2023-04-01T02:32:42.810Z,95606.63
2023-04-01T02:33:46.275Z,95604.16
2023-04-01T02:34:49.461Z,95606.81
2023-04-01T02:35:51.430Z,95604.94
2023-04-01T02:36:54.541Z,95615.97
2023-04-01T02:37:57.085Z,95615.00
2023-04-01T02:39:03.303Z,95619.81
2023-04-01T02:40:07.974Z,95621.44
2023-04-01T02:41:09.837Z,95625.38
2023-04-01T02:42:11.902Z,95622.16
2023-04-01T02:43:13.968Z,95617.78
2023-04-01T02:44:16.420Z,95612.38
2023-04-01T02:45:18.272Z,95619.53
2023-04-01T02:46:20.154Z,95629.16
2023-04-01T02:47:21.983Z,95623.75
2023-04-01T02:48:23.761Z,95617.91
2023-04-01T02:49:25.623Z,95623.25
2023-04-01T02:50:27.451Z,95617.41
2023-04-01T02:51:30.305Z,95620.00
2023-04-01T02:52:33.509Z,95635.78
2023-04-01T02:53:36.060Z,95643.59
2023-04-01T02:54:37.761Z,95638.84
2023-04-01T02:55:39.597Z,95630.09
2023-04-01T02:56:41.440Z,95630.88
2023-04-01T02:57:43.192Z,95634.50
2023-04-01T02:58:44.980Z,95644.44
2023-04-01T02:59:46.898Z,95647.19
2023-04-01T03:00:48.726Z,95639.78
2023-04-01T03:01:50.564Z,95631.34
2023-04-01T03:02:52.430Z,95640.13
2023-04-01T03:03:54.312Z,95636.16
2023-04-01T03:04:56.045Z,95644.75
2023-04-01T03:05:59.955Z,95641.16
2023-04-01T03:07:01.845Z,95638.34
2023-04-01T03:08:03.990Z,95631.13
2023-04-01T03:09:05.745Z,95629.31
2023-04-01T03:10:08.178Z,95620.09
2023-04-01T03:11:11.210Z,95636.66
2023-04-01T03:12:13.155Z,95640.72
2023-04-01T03:13:14.948Z,95646.34
2023-04-01T03:14:16.874Z,95649.34
2023-04-01T03:15:18.676Z,95637.41
2023-04-01T03:16:20.526Z,95627.44
2023-04-01T03:17:22.444Z,95623.09
2023-04-01T03:18:24.263Z,95625.34
2023-04-01T03:19:26.297Z,95631.75
2023-04-01T03:20:28.049Z,95627.41
2023-04-01T03:21:29.875Z,95624.28
2023-04-01T03:22:31.920Z,95631.06
2023-04-01T03:23:33.747Z,95629.41
2023-04-01T03:24:35.553Z,95637.41
2023-04-01T03:25:37.303Z,95636.41
2023-04-01T03:26:39.322Z,95638.22
2023-04-01T03:27:41.370Z,95642.97
2023-04-01T03:28:43.222Z,95642.97
2023-04-01T03:29:44.975Z,95641.75
2023-04-01T03:30:46.775Z,95636.22
2023-04-01T03:31:48.521Z,95629.63
2023-04-01T03:32:50.669Z,95634.47
2023-04-01T03:33:52.483Z,95629.50
2023-04-01T03:34:54.211Z,95632.66
2023-04-01T03:35:56.080Z,95638.63
2023-04-01T03:36:58.383Z,95633.03
2023-04-01T03:38:00.418Z,95641.22
2023-04-01T03:39:02.276Z,95637.06
2023-04-01T03:40:04.282Z,95634.69
2023-04-01T03:41:06.270Z,95635.91
2023-04-01T03:42:08.483Z,95640.84
2023-04-01T03:43:11.274Z,95633.44
2023-04-01T03:44:13.142Z,95627.03
2023-04-01T03:45:14.939Z,95627.84
2023-04-01T03:46:20.207Z,95628.84
2023-04-01T03:47:22.297Z,95624.81
2023-04-01T03:48:24.129Z,95632.19
2023-04-01T03:49:26.264Z,95633.63
2023-04-01T03:50:28.785Z,95635.25
2023-04-01T03:51:31.888Z,95626.25
2023-04-01T03:52:33.965Z,95633.81
2023-04-01T03:53:35.854Z,95634.41
2023-04-01T03:54:38.072Z,95641.97
2023-04-01T03:55:40.807Z,95652.56
2023-04-01T03:56:42.660Z,95643.75
2023-04-01T03:57:44.481Z,95634.03
2023-04-01T03:58:46.319Z,95631.44
2023-04-01T03:59:48.065Z,95630.19
2023-04-01T04:00:49.856Z,95630.56
2023-04-01T04:01:51.774Z,95628.63
2023-04-01T04:02:53.707Z,95636.63
2023-04-01T04:03:55.711Z,95642.41
2023-04-01T04:04:57.556Z,95643.75
2023-04-01T04:05:59.371Z,95647.75
2023-04-01T04:07:01.103Z,95641.53
2023-04-01T04:08:02.945Z,95632.75
2023-04-01T04:09:04.799Z,95630.75
2023-04-01T04:10:07.052Z,95631.31
2023-04-01T04:11:09.060Z,95636.16
2023-04-01T04:12:10.774Z,95635.84
2023-04-01T04:13:12.516Z,95625.28
2023-04-01T04:14:14.294Z,95619.09
2023-04-01T04:15:16.485Z,95627.69
2023-04-01T04:16:18.685Z,95630.34
2023-04-01T04:17:20.713Z,95632.81
2023-04-01T04:18:22.462Z,95643.59
2023-04-01T04:19:24.278Z,95652.41
2023-04-01T04:20:26.077Z,95649.63
2023-04-01T04:21:27.800Z,95644.19
2023-04-01T04:22:29.586Z,95635.41
2023-04-01T04:23:33.125Z,95641.56
2023-04-01T04:24:37.850Z,95639.56
2023-04-01T04:25:39.748Z,95640.34
2023-04-01T04:26:41.594Z,95648.31
2023-04-01T04:27:43.489Z,95656.34
2023-04-01T04:28:45.411Z,95658.50
2023-04-01T04:29:47.248Z,95651.69
2023-04-01T04:30:48.982Z,95651.03
2023-04-01T04:31:50.844Z,95657.38
2023-04-01T04:32:52.689Z,95659.78
2023-04-01T04:33:54.539Z,95663.53
2023-04-01T04:34:56.364Z,95660.28
2023-04-01T04:35:59.033Z,95653.66
2023-04-01T04:37:01.245Z,95656.84
2023-04-01T04:38:03.031Z,95662.59
2023-04-01T04:39:04.804Z,95641.63
2023-04-01T04:40:06.993Z,95640.19
2023-04-01T04:41:13.887Z,95645.25
2023-04-01T04:42:15.686Z,95652.94
2023-04-01T04:43:18.312Z,95652.78
2023-04-01T04:44:20.074Z,95656.16
2023-04-01T04:45:21.962Z,95653.78
2023-04-01T04:46:24.139Z,95656.16
2023-04-01T04:47:25.996Z,95652.63
2023-04-01T04:48:27.767Z,95661.63
2023-04-01T04:49:29.523Z,95658.69
2023-04-01T04:50:31.538Z,95658.22
2023-04-01T04:51:37.009Z,95650.19
2023-04-01T04:52:38.780Z,95656.53
2023-04-01T04:53:40.692Z,95654.72
2023-04-01T04:54:42.498Z,95660.50
2023-04-01T04:55:50.533Z,95658.13
2023-04-01T04:56:53.085Z,95671.69
2023-04-01T04:57:55.284Z,95680.84
2023-04-01T04:58:57.155Z,95675.66
2023-04-01T04:59:58.948Z,95667.47
2023-04-01T05:01:01.316Z,95659.03
2023-04-01T05:02:03.177Z,95666.81
2023-04-01T05:03:05.094Z,95664.03
2023-04-01T05:04:07.297Z,95668.06
2023-04-01T05:05:09.170Z,95664.91
2023-04-01T05:06:11.723Z,95661.31
2023-04-01T05:07:13.520Z,95653.28
2023-04-01T05:08:15.293Z,95650.28
2023-04-01T05:09:17.079Z,95646.91
2023-04-01T05:10:18.894Z,95652.94
2023-04-01T05:11:20.861Z,95650.75
2023-04-01T05:12:22.652Z,95648.59
2023-04-01T05:13:24.481Z,95656.59
2023-04-01T05:14:26.226Z,95656.97
2023-04-01T05:15:28.138Z,95654.97
2023-04-01T05:16:30.051Z,95647.31
2023-04-01T05:17:31.950Z,95648.25
2023-04-01T05:18:33.861Z,95655.63
2023-04-01T05:19:35.967Z,95669.41
2023-04-01T05:20:37.835Z,95669.03
2023-04-01T05:21:39.643Z,95676.03
2023-04-01T05:22:41.475Z,95666.44
2023-04-01T05:23:44.098Z,95656.84
2023-04-01T05:24:48.463Z,95654.09
2023-04-01T05:25:52.132Z,95674.88
2023-04-01T05:26:55.841Z,95689.41
2023-04-01T05:27:58.669Z,95671.03
2023-04-01T05:29:00.589Z,95660.66
2023-04-01T05:30:02.551Z,95663.63
2023-04-01T05:31:04.620Z,95659.03
2023-04-01T05:32:06.427Z,95677.19
2023-04-01T05:33:08.333Z,95682.22
2023-04-01T05:34:10.116Z,95671.84
2023-04-01T05:35:11.999Z,95661.25
2023-04-01T05:36:15.800Z,95665.22
2023-04-01T05:37:17.847Z,95667.22
2023-04-01T05:38:19.584Z,95669.81
2023-04-01T05:39:21.600Z,95669.63
2023-04-01T05:40:23.452Z,95673.56
2023-04-01T05:41:25.768Z,95671.56
2023-04-01T05:42:27.646Z,95679.94
2023-04-01T05:43:29.430Z,95673.75
2023-04-01T05:44:31.300Z,95677.34
2023-04-01T05:45:33.243Z,95662.59
2023-04-01T05:46:35.184Z,95662.03
2023-04-01T05:47:37.013Z,95672.84
2023-04-01T05:48:38.921Z,95670.09
2023-04-01T05:49:41.290Z,95657.31
2023-04-01T05:50:43.417Z,95657.56
2023-04-01T05:51:45.217Z,95669.94
2023-04-01T05:52:47.106Z,95676.13
2023-04-01T05:53:48.940Z,95680.09
2023-04-01T05:54:50.803Z,95696.41
2023-04-01T05:55:52.630Z,95697.38
2023-04-01T05:56:54.484Z,95684.97
2023-04-01T05:57:56.332Z,95679.94
2023-04-01T05:58:58.112Z,95680.50
2023-04-01T05:59:59.864Z,95670.69
2023-04-01T06:01:09.540Z,95675.28
2023-04-01T06:02:13.093Z,95687.44
2023-04-01T06:03:15.044Z,95687.44
2023-04-01T06:04:18.294Z,95682.25
2023-04-01T06:05:21.899Z,95686.88
2023-04-01T06:06:30.207Z,95677.13
2023-04-01T06:07:32.232Z,95681.53
2023-04-01T06:08:34.070Z,95682.53
2023-04-01T06:09:36.236Z,95688.28
2023-04-01T06:10:44.456Z,95685.09
2023-04-01T06:11:46.550Z,95680.22
2023-04-01T06:12:54.356Z,95693.44
2023-04-01T06:14:01.656Z,95699.63
2023-04-01T06:15:12.263Z,95695.69
2023-04-01T06:16:23.654Z,95703.66
2023-04-01T06:17:28.622Z,95706.63
2023-04-01T06:18:53.770Z,95699.81
2023-04-01T06:20:28.257Z,95701.16
2023-04-01T06:21:36.142Z,95686.66
2023-04-01T06:22:56.425Z,95686.66
2023-04-01T06:24:06.577Z,95702.59
2023-04-01T06:25:17.161Z,95703.78
2023-04-01T06:26:38.050Z,95706.53
2023-04-01T06:27:52.450Z,95681.34
2023-04-01T06:28:54.236Z,95683.75
2023-04-01T06:29:56.289Z,95698.88
2023-04-01T06:31:04.072Z,95691.00
2023-04-01T06:32:05.992Z,95700.19
2023-04-01T06:33:27.296Z,95695.59
2023-04-01T06:34:31.980Z,95708.91
2023-04-01T06:35:33.969Z,95711.88
2023-04-01T06:37:05.260Z,95702.84
2023-04-01T06:38:18.598Z,95702.44
2023-04-01T06:39:29.438Z,95705.59
2023-04-01T06:40:49.933Z,95691.84
2023-04-01T06:42:10.489Z,95693.63
2023-04-01T06:43:35.582Z,95702.84
2023-04-01T06:44:49.922Z,95702.72
2023-04-01T06:45:52.137Z,95699.34
2023-04-01T06:47:01.192Z,95704.09
2023-04-01T06:48:05.826Z,95689.44
2023-04-01T06:49:27.884Z,95679.63
2023-04-01T06:50:42.575Z,95680.00
2023-04-01T06:51:46.925Z,95693.13
2023-04-01T06:53:06.787Z,95689.06
2023-04-01T06:54:11.560Z,95683.25
2023-04-01T06:55:39.033Z,95685.38
2023-04-01T06:56:43.942Z,95690.22
2023-04-01T06:57:48.609Z,95707.72
2023-04-01T06:59:05.672Z,95692.53
2023-04-01T07:00:15.113Z,95689.53
2023-04-01T07:01:35.562Z,95692.03
2023-04-01T07:02:44.041Z,95693.78
2023-04-01T07:03:57.268Z,95684.53
2023-04-01T07:04:59.809Z,95672.91
2023-04-01T07:06:05.108Z,95670.75
2023-04-01T07:07:12.425Z,95683.19
2023-04-01T07:08:23.851Z,95685.56
2023-04-01T07:09:38.285Z,95669.53
2023-04-01T07:10:49.603Z,95671.47
2023-04-01T07:11:52.091Z,95666.63
2023-04-01T07:12:56.433Z,95677.16
2023-04-01T07:14:03.756Z,95675.50
2023-04-01T07:15:13.202Z,95671.66
2023-04-01T07:16:31.507Z,95663.50
2023-04-01T07:17:36.859Z,95672.44
2023-04-01T07:18:42.943Z,95683.41
2023-04-01T07:20:20.179Z,95681.28
2023-04-01T07:21:28.087Z,95665.44
2023-04-01T07:22:36.463Z,95672.44
2023-04-01T07:23:40.496Z,95666.69
2023-04-01T07:24:43.811Z,95667.47
2023-04-01T07:25:46.939Z,95672.44
2023-04-01T07:26:51.572Z,95656.41
2023-04-01T07:28:04.066Z,95674.75
2023-04-01T07:29:07.189Z,95682.31
2023-04-01T07:30:15.786Z,95680.50
2023-04-01T07:31:37.798Z,95665.38
2023-04-01T07:32:45.638Z,95683.13
2023-04-01T07:33:53.936Z,95688.31
2023-04-01T07:35:04.629Z,95679.72
2023-04-01T07:36:35.558Z,95682.44
2023-04-01T07:37:55.713Z,95691.06
2023-04-01T07:39:11.702Z,95682.81
2023-04-01T07:40:21.229Z,95685.19
2023-04-01T07:41:29.895Z,95685.22
2023-04-01T07:42:43.686Z,95689.56
2023-04-01T07:44:00.648Z,95692.50
2023-04-01T07:45:08.200Z,95687.06
2023-04-01T07:46:27.839Z,95695.44
2023-04-01T07:47:36.316Z,95697.81
2023-04-01T07:48:50.545Z,95689.00
2023-04-01T07:49:59.456Z,95700.22
2023-04-01T07:51:01.304Z,95695.56
2023-04-01T07:52:10.437Z,95708.94
2023-04-01T07:53:30.465Z,95700.09
2023-04-01T07:54:50.544Z,95710.19
2023-04-01T07:55:55.326Z,95691.16
2023-04-01T07:57:03.267Z,95690.59
2023-04-01T07:58:15.919Z,95699.63
2023-04-01T07:59:28.906Z,95714.47
2023-04-01T08:00:30.688Z,95707.44
2023-04-01T08:01:38.484Z,95715.03
2023-04-01T08:02:49.150Z,95712.22
2023-04-01T08:03:57.289Z,95706.19
2023-04-01T08:05:05.452Z,95701.81
2023-04-01T08:06:07.299Z,95696.00
2023-04-01T08:07:17.221Z,95705.41
2023-04-01T08:08:30.819Z,95703.38
2023-04-01T08:09:38.728Z,95717.44
2023-04-01T08:10:56.480Z,95725.81
2023-04-01T08:11:59.479Z,95715.97
2023-04-01T08:13:07.546Z,95729.97
2023-04-01T08:14:12.271Z,95715.59
2023-04-01T08:15:23.179Z,95705.97
2023-04-01T08:16:33.396Z,95709.38
2023-04-01T08:17:47.554Z,95713.78
2023-04-01T08:18:55.351Z,95727.94
2023-04-01T08:20:03.675Z,95709.72
2023-04-01T08:21:11.589Z,95723.66
2023-04-01T08:22:19.011Z,95713.63
2023-04-01T08:23:23.842Z,95706.38
2023-04-01T08:24:26.270Z,95708.50
2023-04-01T08:25:33.487Z,95696.06
2023-04-01T08:26:47.393Z,95704.09
2023-04-01T08:27:52.586Z,95715.66
2023-04-01T08:28:58.728Z,95718.03
2023-04-01T08:30:19.305Z,95719.06
2023-04-01T08:31:30.715Z,95716.91
2023-04-01T08:32:42.833Z,95725.06
2023-04-01T08:33:47.680Z,95724.28
2023-04-01T08:34:54.436Z,95729.13
2023-04-01T08:35:59.925Z,95725.94
2023-04-01T08:37:05.015Z,95724.13
2023-04-01T08:38:19.659Z,95713.72
2023-04-01T08:39:24.220Z,95716.31
2023-04-01T08:40:36.986Z,95721.31
2023-04-01T08:42:17.472Z,95719.38
2023-04-01T08:43:51.512Z,95721.56
2023-04-01T08:45:02.341Z,95722.47
2023-04-01T08:46:04.890Z,95726.78
2023-04-01T08:47:09.788Z,95723.72
2023-04-01T08:48:14.264Z,95717.50
2023-04-01T08:49:16.118Z,95722.25
2023-04-01T08:50:27.907Z,95719.22
2023-04-01T08:51:44.603Z,95720.00
2023-04-01T08:53:08.026Z,95725.34
2023-04-01T08:54:27.158Z,95722.59
2023-04-01T08:55:36.270Z,95721.13
2023-04-01T08:56:37.983Z,95716.50
2023-04-01T08:57:52.658Z,95721.72
2023-04-01T08:58:58.629Z,95723.88
2023-04-01T09:00:06.524Z,95720.78
2023-04-01T09:01:14.053Z,95717.50
2023-04-01T09:02:34.461Z,95724.41
2023-04-01T09:03:39.857Z,95720.31
2023-04-01T09:04:53.637Z,95722.72
2023-04-01T09:06:01.235Z,95726.91
2023-04-01T09:07:14.806Z,95720.09
2023-04-01T09:08:22.137Z,95719.09
2023-04-01T09:09:26.622Z,95731.09
2023-04-01T09:10:31.338Z,95721.22
2023-04-01T09:11:45.295Z,95717.16
2023-04-01T09:13:05.954Z,95718.28
2023-04-01T09:14:22.982Z,95721.44
2023-04-01T09:15:43.037Z,95724.22
2023-04-01T09:16:57.371Z,95719.91
2023-04-01T09:18:04.762Z,95719.75
2023-04-01T09:19:10.073Z,95720.88
2023-04-01T09:20:20.306Z,95721.22
2023-04-01T09:21:40.857Z,95718.13
2023-04-01T09:22:42.667Z,95719.50
2023-04-01T09:24:03.110Z,95718.94
2023-04-01T09:25:07.778Z,95709.88
2023-04-01T09:26:09.510Z,95713.47
2023-04-01T09:27:11.245Z,95707.47
2023-04-01T09:28:13.173Z,95715.88
2023-04-01T09:29:33.093Z,95715.09
2023-04-01T09:30:42.701Z,95711.13
2023-04-01T09:31:44.453Z,95704.53
2023-04-01T09:33:06.557Z,95704.78
2023-04-01T09:34:08.369Z,95711.25
2023-04-01T09:35:22.895Z,95712.50
2023-04-01T09:36:50.603Z,95717.16
2023-04-01T09:37:58.215Z,95718.72
2023-04-01T09:39:04.898Z,95718.72
2023-04-01T09:40:15.497Z,95715.09
2023-04-01T09:41:26.518Z,95708.06
2023-04-01T09:42:43.843Z,95708.63
2023-04-01T09:43:54.238Z,95707.06
2023-04-01T09:44:56.100Z,95708.28
2023-04-01T09:46:01.054Z,95705.94
2023-04-01T09:47:06.068Z,95705.69
2023-04-01T09:48:21.020Z,95703.63
2023-04-01T09:49:22.764Z,95700.47
2023-04-01T09:50:24.510Z,95711.38
2023-04-01T09:51:29.381Z,95720.22
2023-04-01T09:52:39.860Z,95733.50
2023-04-01T09:53:53.923Z,95724.84
2023-04-01T09:55:01.639Z,95709.78
2023-04-01T09:56:04.833Z,95703.06
2023-04-01T09:57:25.173Z,95706.50
2023-04-01T09:58:53.204Z,95723.16
2023-04-01T09:59:55.559Z,95720.78
2023-04-01T10:01:16.205Z,95706.94
2023-04-01T10:02:27.469Z,95699.91
2023-04-01T10:03:44.307Z,95697.84
2023-04-01T10:04:49.117Z,95707.28
2023-04-01T10:05:59.843Z,95706.84
2023-04-01T10:07:20.419Z,95711.56
2023-04-01T10:08:33.970Z,95717.91
2023-04-01T10:09:54.611Z,95719.50
2023-04-01T10:11:15.082Z,95708.28
2023-04-01T10:12:28.655Z,95705.34
2023-04-01T10:13:33.520Z,95704.53
2023-04-01T10:15:01.544Z,95696.16
2023-04-01T10:16:03.457Z,95701.94
2023-04-01T10:17:17.735Z,95710.09
2023-04-01T10:18:25.697Z,95711.22
2023-04-01T10:19:36.700Z,95702.38
2023-04-01T10:20:57.294Z,95699.50
2023-04-01T10:22:17.937Z,95705.06
2023-04-01T10:23:23.420Z,95695.53
2023-04-01T10:24:43.638Z,95688.25
2023-04-01T10:25:57.492Z,95693.25
2023-04-01T10:27:11.569Z,95697.44
2023-04-01T10:28:31.796Z,95702.66
2023-04-01T10:29:45.590Z,95699.16
2023-04-01T10:30:56.512Z,95700.97
2023-04-01T10:32:26.419Z,95706.53
2023-04-01T10:33:33.988Z,95715.81
2023-04-01T10:34:35.734Z,95712.25
2023-04-01T10:35:50.247Z,95708.72
2023-04-01T10:36:53.930Z,95696.06
2023-04-01T10:38:14.206Z,95690.16
2023-04-01T10:39:22.627Z,95694.19
2023-04-01T10:40:26.531Z,95697.38
2023-04-01T10:41:43.249Z,95692.00
2023-04-01T10:42:56.368Z,95691.06
2023-04-01T10:44:14.080Z,95692.41
2023-04-01T10:45:15.984Z,95693.91
2023-04-01T10:46:36.331Z,95696.75
2023-04-01T10:47:41.837Z,95698.25
2023-04-01T10:49:02.291Z,95701.66
2023-04-01T10:50:06.838Z,95694.13
2023-04-01T10:51:35.174Z,95699.91
2023-04-01T10:52:55.777Z,95691.84
2023-04-01T10:54:06.600Z,95692.63
2023-04-01T10:55:27.129Z,95688.19
2023-04-01T10:56:31.715Z,95683.78
2023-04-01T10:57:36.655Z,95682.19
2023-04-01T10:58:47.365Z,95681.75
2023-04-01T11:00:08.571Z,95677.63
2023-04-01T11:01:25.675Z,95678.25
2023-04-01T11:02:46.415Z,95676.34
2023-04-01T11:04:06.134Z,95679.91
2023-04-01T11:05:37.460Z,95672.69
2023-04-01T11:06:42.057Z,95667.31
2023-04-01T11:08:11.588Z,95671.25
2023-04-01T11:09:32.213Z,95666.94
2023-04-01T11:10:52.636Z,95665.78
2023-04-01T11:12:09.629Z,95668.09
2023-04-01T11:13:17.704Z,95663.34
2023-04-01T11:14:22.388Z,95665.72
2023-04-01T11:15:27.206Z,95658.34
2023-04-01T11:16:47.681Z,95661.44
2023-04-01T11:18:01.434Z,95660.81
2023-04-01T11:19:06.276Z,95652.69
2023-04-01T11:20:34.420Z,95662.88
2023-04-01T11:21:55.039Z,95657.19
2023-04-01T11:23:15.321Z,95666.59
2023-04-01T11:24:26.184Z,95660.81
2023-04-01T11:25:57.263Z,95659.69
2023-04-01T11:27:05.201Z,95660.19
2023-04-01T11:28:09.702Z,95658.88
2023-04-01T11:29:38.922Z,95655.19
2023-04-01T11:30:55.643Z,95662.03
2023-04-01T11:32:17.774Z,95656.31
2023-04-01T11:33:24.097Z,95646.72
2023-04-01T11:34:41.222Z,95652.88
2023-04-01T11:36:01.310Z,95657.16
2023-04-01T11:37:18.462Z,95652.25
2023-04-01T11:38:30.713Z,95665.09
2023-04-01T11:39:35.843Z,95664.53
2023-04-01T11:40:43.588Z,95678.88
2023-04-01T11:42:05.613Z,95677.75
2023-04-01T11:43:33.046Z,95673.78
2023-04-01T11:44:41.211Z,95674.28
2023-04-01T11:45:53.098Z,95675.28
2023-04-01T11:47:06.690Z,95689.09
2023-04-01T11:48:23.481Z,95691.06
2023-04-01T11:49:38.375Z,95708.50
2023-04-01T11:50:55.467Z,95707.63
2023-04-01T11:52:16.195Z,95711.19
2023-04-01T11:53:36.840Z,95695.13
2023-04-01T11:54:52.397Z,95687.03
2023-04-01T11:55:57.133Z,95694.94
2023-04-01T11:56:58.975Z,95686.03
2023-04-01T11:58:27.120Z,95681.00
2023-04-01T11:59:47.727Z,95679.19
2023-04-01T12:00:52.704Z,95673.75
2023-04-01T12:02:01.008Z,95672.16
2023-04-01T12:03:21.474Z,95669.00
2023-04-01T12:04:35.333Z,95662.66
2023-04-01T12:05:47.419Z,95657.25
2023-04-01T12:07:01.158Z,95666.78
2023-04-01T12:08:14.531Z,95665.81
2023-04-01T12:09:25.255Z,95654.31
2023-04-01T12:10:39.080Z,95654.34
2023-04-01T12:11:46.877Z,95651.59
2023-04-01T12:13:02.113Z,95660.66
2023-04-01T12:14:10.640Z,95663.03
2023-04-01T12:15:24.387Z,95650.41
2023-04-01T12:16:26.331Z,95648.84
2023-04-01T12:17:46.579Z,95647.75
2023-04-01T12:18:48.362Z,95653.03
2023-04-01T12:19:56.529Z,95642.25
2023-04-01T12:21:15.830Z,95640.91
2023-04-01T12:22:32.553Z,95651.47
2023-04-01T12:23:38.296Z,95644.41
2023-04-01T12:24:43.032Z,95645.72
2023-04-01T12:26:05.964Z,95646.78
2023-04-01T12:27:26.350Z,95641.50
2023-04-01T12:28:37.256Z,95642.22
2023-04-01T12:29:39.048Z,95640.63
2023-04-01T12:30:53.020Z,95632.44
2023-04-01T12:31:54.873Z,95629.88
2023-04-01T12:32:57.098Z,95631.22
2023-04-01T12:34:01.971Z,95634.66
2023-04-01T12:35:16.014Z,95643.88
2023-04-01T12:36:20.952Z,95641.22
2023-04-01T12:37:38.011Z,95644.59
2023-04-01T12:38:58.527Z,95638.03
2023-04-01T12:40:08.814Z,95637.03
2023-04-01T12:41:11.552Z,95632.03
2023-04-01T12:42:13.360Z,95620.50
2023-04-01T12:43:35.322Z,95625.22
2023-04-01T12:44:39.884Z,95629.97
2023-04-01T12:46:00.628Z,95628.91
2023-04-01T12:47:11.532Z,95630.47
2023-04-01T12:48:19.477Z,95624.66
2023-04-01T12:49:29.390Z,95629.94
2023-04-01T12:50:31.155Z,95620.38
2023-04-01T12:51:51.091Z,95624.66
2023-04-01T12:53:04.466Z,95617.81
2023-04-01T12:54:15.462Z,95614.13
2023-04-01T12:55:20.753Z,95614.34
2023-04-01T12:56:41.264Z,95609.88
2023-04-01T12:57:54.979Z,95608.81
2023-04-01T12:59:08.947Z,95603.69
2023-04-01T13:00:16.901Z,95599.63
2023-04-01T13:01:37.424Z,95599.06
2023-04-01T13:02:47.562Z,95603.31
2023-04-01T13:03:58.224Z,95597.06
2023-04-01T13:05:16.778Z,95591.84
2023-04-01T13:06:21.549Z,95592.25
2023-04-01T13:07:35.656Z,95582.06
2023-04-01T13:08:41.571Z,95578.97
2023-04-01T13:10:01.434Z,95582.66
2023-04-01T13:11:29.124Z,95579.50
2023-04-01T13:12:33.895Z,95581.34
2023-04-01T13:13:46.236Z,95580.56
2023-04-01T13:15:12.950Z,95591.06